EGPF/GLA METAR and TAF weather

Enter ICAO airport designator
Station Type Date Time Source
EGPF METAR 2019/06/26 09:50 UTC NOAA

EGPF 260950Z AUTO 08005KT 050V130 9999 OVC023 15/10 Q1032


Station Type Date Time Source
EGPF Decoded METAR 2019/06/26 09:50 UTC NOAA

Glasgow Airport, United Kingdom (EGPF) 55-52N 004-26W 0M
Jun 26, 2019 - 05:50 AM EDT / 2019.06.26 0950 UTC
Wind: from the E (080 degrees) at 6 MPH (5 KT) (direction variable):0
Visibility: greater than 7 mile(s):0
Sky conditions: overcast
Temperature: 59 F (15 C)
Dew Point: 50 F (10 C)
Relative Humidity: 72%
Pressure (altimeter): 30.47 in. Hg (1032 hPa)
ob: EGPF 260950Z AUTO 08005KT 050V130 9999 OVC023 15/10 Q1032
cycle: 10

Station Type Date Time Source
EGPF TAF 2019/06/26 06:08 UTC NOAA

TAF EGPF 260504Z 2606/2706 09005KT 9999 SCT020
TEMPO 2606/2609 7000 BKN012 PROB30 2615/2621 29010KT
TEMPO 2700/2706 7000 PROB30
TEMPO 2703/2706 4000 BR

Example: see airport list